Time;durP1;ratioP1;P1;durP2;ratioP2;P2;SDS_P1;SDS_P2;PMS_P1;PMS_P2;Temp;Humidity;BMP_temperature;BMP_pressure;BME280_temperature;BME280_humidity;BME280_pressure;Samples;Min_cycle;Max_cycle;Signal;HPM_P1;HPM_P2
2022/07/12 00:02:00;;;;;;;9.30;3.40;;;;;;;14.66;72.72;100819.45;109100;1267;23986;-79
2022/07/12 00:04:45;;;;;;;5.30;3.10;;;;;;;14.62;72.76;100822.70;109308;1260;22757;-77
2022/07/12 00:07:20;;;;;;;11.00;3.80;;;;;;;14.58;72.84;100823.02;109608;1260;21978;-78
2022/07/12 00:09:56;;;;;;;11.10;3.00;;;;;;;14.54;72.75;100829.17;109679;1259;23191;-78
2022/07/12 00:12:28;;;;;;;5.30;2.80;;;;;;;14.49;72.72;100830.42;109959;1258;24292;-78
2022/07/12 00:15:00;;;;;;;8.80;3.50;;;;;;;14.46;72.96;100832.74;109927;1259;23043;-78
2022/07/12 00:17:34;;;;;;;14.50;3.10;;;;;;;14.43;72.93;100834.94;110035;1259;21964;-77
2022/07/12 00:20:22;;;;;;;13.10;3.30;;;;;;;14.37;72.95;100832.39;110345;1253;21999;-78
2022/07/12 00:22:53;;;;;;;10.70;3.80;;;;;;;14.33;72.99;100832.13;110570;1253;22096;-78
2022/07/12 00:25:26;;;;;;;10.40;4.20;;;;;;;14.29;72.93;100834.40;110373;1252;21969;-77
2022/07/12 00:28:11;;;;;;;9.70;3.00;;;;;;;14.23;72.85;100839.66;110395;1253;22057;-79
2022/07/12 00:30:48;;;;;;;10.50;3.60;;;;;;;14.20;73.08;100839.90;110470;1254;22559;-79
2022/07/12 00:33:27;;;;;;;8.90;3.40;;;;;;;14.17;73.16;100832.84;110406;1253;23678;-79
2022/07/12 00:36:08;;;;;;;14.20;4.10;;;;;;;14.12;73.25;100834.93;109749;1261;22391;-79
2022/07/12 00:38:46;;;;;;;16.50;3.70;;;;;;;14.08;73.37;100831.86;109635;1261;21965;-79
2022/07/12 00:41:19;;;;;;;8.80;3.90;;;;;;;14.06;73.48;100831.45;109863;1259;21969;-78
2022/07/12 00:43:50;;;;;;;8.40;3.60;;;;;;;14.04;73.51;100837.30;109679;1260;23713;-78
2022/07/12 00:46:31;;;;;;;8.60;3.70;;;;;;;14.03;73.57;100834.81;109892;1261;23593;-78
2022/07/12 00:49:13;;;;;;;10.50;3.20;;;;;;;14.01;73.67;100835.77;109610;1260;23038;-78
2022/07/12 00:51:48;;;;;;;8.30;3.50;;;;;;;13.99;73.74;100831.50;109725;1260;22078;-78
2022/07/12 00:54:19;;;;;;;13.20;4.30;;;;;;;13.98;73.77;100832.70;109879;1254;21961;-78
2022/07/12 00:57:02;;;;;;;13.90;3.50;;;;;;;13.96;73.79;100832.21;110283;1258;23007;-78
2022/07/12 00:59:40;;;;;;;11.30;3.70;;;;;;;13.95;73.73;100833.96;110007;1256;23163;-78
2022/07/12 01:02:13;;;;;;;10.60;4.10;;;;;;;13.96;73.85;100834.05;109616;1262;22984;-78
2022/07/12 01:04:50;;;;;;;8.70;3.60;;;;;;;13.95;74.00;100836.42;108986;1267;23028;-78
2022/07/12 01:07:24;;;;;;;7.80;3.80;;;;;;;13.95;73.94;100837.11;109109;1266;23055;-78
2022/07/12 01:09:54;;;;;;;8.00;3.40;;;;;;;13.94;73.76;100837.46;108922;1265;22124;-78
2022/07/12 01:12:26;;;;;;;10.30;3.50;;;;;;;13.93;73.81;100836.86;108898;1267;23853;-79
2022/07/12 01:15:30;;;;;;;8.10;3.30;;;;;;;13.92;73.74;100837.16;109252;1263;22234;-79
2022/07/12 01:18:06;;;;;;;11.40;3.60;;;;;;;13.89;73.82;100831.44;109343;1263;22218;-79
2022/07/12 01:20:41;;;;;;;10.40;4.10;;;;;;;13.87;73.74;100833.38;109328;1262;22012;-80
2022/07/12 01:23:12;;;;;;;8.20;3.60;;;;;;;13.87;73.66;100831.69;110498;1252;21977;-79
2022/07/12 01:25:44;;;;;;;10.90;3.60;;;;;;;13.84;73.64;100831.13;110217;1254;21979;-77
2022/07/12 01:28:16;;;;;;;10.30;4.10;;;;;;;13.83;73.67;100832.35;109610;1260;23069;-78
2022/07/12 01:31:15;;;;;;;9.90;3.60;;;;;;;13.77;73.50;100828.61;109940;1260;21969;-77
2022/07/12 01:33:45;;;;;;;12.60;3.90;;;;;;;13.74;73.39;100827.37;109788;1260;22039;-79
2022/07/12 01:36:21;;;;;;;10.70;4.00;;;;;;;13.71;73.43;100827.06;110024;1258;21974;-78
2022/07/12 01:38:59;;;;;;;8.70;3.30;;;;;;;13.67;73.35;100827.30;110176;1258;22010;-78
2022/07/12 01:41:35;;;;;;;7.90;3.70;;;;;;;13.62;73.38;100826.56;109925;1258;23975;-77
2022/07/12 01:44:08;;;;;;;11.60;4.00;;;;;;;13.56;73.28;100824.40;109844;1258;21983;-77
2022/07/12 01:46:41;;;;;;;12.10;3.50;;;;;;;13.54;73.51;100822.59;110261;1253;23108;-77
2022/07/12 01:49:13;;;;;;;9.00;3.80;;;;;;;13.51;73.54;100825.69;109843;1261;22283;-77
2022/07/12 01:51:44;;;;;;;8.10;4.40;;;;;;;13.49;73.55;100823.68;109835;1260;22004;-77
2022/07/12 01:54:18;;;;;;;13.80;3.90;;;;;;;13.46;73.43;100823.88;109945;1260;21998;-78
2022/07/12 01:56:55;;;;;;;12.50;4.60;;;;;;;13.42;73.45;100822.00;110010;1260;21978;-77
2022/07/12 01:59:36;;;;;;;13.60;4.10;;;;;;;13.37;73.62;100818.15;109933;1260;21984;-78
2022/07/12 02:02:07;;;;;;;13.90;4.20;;;;;;;13.34;73.64;100819.73;109661;1261;21967;-78
2022/07/12 02:04:48;;;;;;;8.10;3.50;;;;;;;13.30;73.68;100821.58;109281;1264;23740;-77
2022/07/12 02:07:30;;;;;;;35.60;5.40;;;;;;;13.28;73.83;100818.70;109037;1264;22947;-77
2022/07/12 02:10:08;;;;;;;9.30;3.60;;;;;;;13.26;73.87;100816.17;109626;1263;21980;-77
2022/07/12 02:12:40;;;;;;;10.80;4.00;;;;;;;13.26;73.94;100817.30;109554;1264;23583;-76
2022/07/12 02:15:10;;;;;;;8.00;3.60;;;;;;;13.26;73.97;100818.20;109572;1263;21987;-77
2022/07/12 02:17:40;;;;;;;9.30;3.50;;;;;;;13.25;74.00;100819.36;109230;1267;22049;-76
2022/07/12 02:20:12;;;;;;;9.70;4.40;;;;;;;13.24;74.09;100821.95;108715;1273;23658;-76
2022/07/12 02:22:43;;;;;;;13.80;4.60;;;;;;;13.22;74.07;100819.25;108443;1276;22001;-77
2022/07/12 02:25:37;;;;;;;12.50;4.00;;;;;;;13.21;74.16;100824.40;108625;1270;22273;-76
2022/07/12 02:28:10;;;;;;;9.90;3.70;;;;;;;13.19;74.08;100822.58;108378;1276;21996;-77
2022/07/12 02:30:44;;;;;;;7.20;3.30;;;;;;;13.17;74.10;100822.66;108307;1279;23098;-77
2022/07/12 02:33:15;;;;;;;11.70;4.20;;;;;;;13.15;74.06;100825.16;107977;1283;22064;-76
2022/07/12 02:35:46;;;;;;;9.90;3.70;;;;;;;13.14;74.10;100824.60;107945;1284;22000;-77
2022/07/12 02:38:17;;;;;;;6.80;3.20;;;;;;;13.14;74.20;100831.70;108014;1283;23639;-77
2022/07/12 02:40:53;;;;;;;13.70;4.10;;;;;;;13.15;74.48;100829.60;107969;1283;23108;-77
2022/07/12 02:43:25;;;;;;;7.00;3.30;;;;;;;13.17;74.62;100824.46;108067;1278;22105;-77
2022/07/12 02:46:28;;;;;;;7.80;3.50;;;;;;;13.19;74.77;100820.00;108394;1276;23736;-77
2022/07/12 02:48:58;;;;;;;20.60;3.70;;;;;;;13.21;74.91;100822.58;108355;1279;22002;-77
2022/07/12 02:51:32;;;;;;;8.80;3.30;;;;;;;13.25;75.16;100824.64;107857;1279;22016;-77
2022/07/12 02:54:03;;;;;;;12.50;3.30;;;;;;;13.31;75.16;100824.52;108130;1279;22065;-77
2022/07/12 02:56:41;;;;;;;11.20;4.00;;;;;;;13.33;75.05;100824.23;108338;1276;23135;-77
2022/07/12 02:59:19;;;;;;;12.40;3.20;;;;;;;13.38;74.94;100822.28;108369;1276;22018;-77
2022/07/12 03:02:25;;;;;;;10.10;3.20;;;;;;;13.38;74.87;100830.17;108406;1276;22844;-75
2022/07/12 03:05:08;;;;;;;10.70;3.00;;;;;;;13.40;74.84;100829.23;108277;1276;23079;-76
2022/07/12 03:07:48;;;;;;;9.90;3.70;;;;;;;13.42;74.72;100827.60;108017;1279;23872;-76
2022/07/12 03:10:27;;;;;;;6.90;3.10;;;;;;;13.44;74.59;100826.88;108266;1275;23599;-78
2022/07/12 03:12:57;;;;;;;10.30;3.30;;;;;;;13.46;74.57;100823.31;108393;1276;22002;-77
2022/07/12 03:15:31;;;;;;;10.00;3.40;;;;;;;13.49;74.63;100819.11;108418;1275;22033;-76
2022/07/12 03:18:03;;;;;;;9.30;3.20;;;;;;;13.51;74.45;100816.66;108401;1276;22014;-76
2022/07/12 03:20:34;;;;;;;11.90;3.90;;;;;;;13.54;74.47;100817.13;108436;1276;24316;-78
2022/07/12 03:23:09;;;;;;;11.10;3.20;;;;;;;13.58;74.40;100817.89;108515;1273;24240;-76
2022/07/12 03:25:55;;;;;;;6.50;2.70;;;;;;;13.62;74.41;100815.44;109063;1258;23595;-77
2022/07/12 03:28:25;;;;;;;10.50;3.30;;;;;;;13.68;74.25;100819.95;109746;1258;23073;-76
2022/07/12 03:31:01;;;;;;;11.20;3.20;;;;;;;13.73;74.24;100821.07;109949;1258;21969;-77
2022/07/12 03:33:53;;;;;;;6.50;2.50;;;;;;;13.78;74.02;100818.98;110006;1258;22016;-78
2022/07/12 03:36:26;;;;;;;9.40;2.90;;;;;;;13.82;73.88;100822.46;109965;1258;22903;-77
2022/07/12 03:39:02;;;;;;;10.20;3.10;;;;;;;13.88;73.55;100826.11;109942;1259;21968;-78
2022/07/12 03:41:42;;;;;;;8.80;3.10;;;;;;;13.89;73.33;100825.77;109623;1261;23014;-78
2022/07/12 03:44:17;;;;;;;7.00;3.00;;;;;;;13.93;73.18;100829.23;110162;1258;21976;-78
2022/07/12 03:47:03;;;;;;;10.50;2.60;;;;;;;13.97;73.24;100824.85;110022;1259;22016;-78
2022/07/12 03:49:47;;;;;;;11.10;3.60;;;;;;;14.02;73.17;100829.79;110353;1258;23130;-80
2022/07/12 03:52:20;;;;;;;17.90;3.60;;;;;;;14.06;73.00;100833.67;110404;1258;22556;-79
2022/07/12 03:54:57;;;;;;;14.10;4.50;;;;;;;14.10;72.85;100837.25;110181;1259;23007;-78
2022/07/12 03:58:03;;;;;;;7.30;3.40;;;;;;;14.13;72.74;100830.95;109427;1264;22526;-78
2022/07/12 04:00:58;;;;;;;9.50;3.20;;;;;;;14.15;72.69;100820.80;109548;1263;22012;-78
2022/07/12 04:03:30;;;;;;;9.60;2.90;;;;;;;14.19;72.69;100818.75;109412;1264;21972;-78
2022/07/12 04:06:50;;;;;;;;;;;;;;;;;;;;;
2022/07/12 04:09:25;;;;;;;11.60;2.90;;;;;;;14.27;72.93;100816.77;109619;1261;22003;-78
2022/07/12 04:11:56;;;;;;;10.10;3.00;;;;;;;14.36;73.22;100816.23;109299;1264;23774;-77
2022/07/12 04:14:43;;;;;;;8.70;2.40;;;;;;;14.47;73.28;100814.19;109387;1264;23603;-78
2022/07/12 04:17:57;;;;;;;8.20;2.70;;;;;;;14.57;73.22;100809.66;109806;1259;23598;-79
2022/07/12 04:20:55;;;;;;;7.20;2.40;;;;;;;14.65;72.80;100808.39;110125;1258;22124;-77
2022/07/12 04:24:16;;;;;;;;;;;;;;;;;;;;;
2022/07/12 04:27:28;;;;;;;;;;;;;;;;;;;;;
2022/07/12 04:30:44;;;;;;;7.90;3.10;;;;;;;14.81;72.44;100804.70;109996;1258;22068;-77
2022/07/12 04:33:55;;;;;;;10.90;3.30;;;;;;;14.90;72.55;100806.18;110001;1257;23604;-78
2022/07/12 04:37:00;;;;;;;4.80;2.40;;;;;;;15.01;72.54;100804.16;109332;1263;21975;-78
2022/07/12 04:39:56;;;;;;;7.60;2.20;;;;;;;15.09;72.28;100801.84;109663;1262;23041;-78
2022/07/12 04:43:25;;;;;;;11.70;2.70;;;;;;;15.13;71.93;100803.98;109856;1259;24941;-77
2022/07/12 04:49:49;;;;;;;;;;;;;;;;;;;;;
2022/07/12 04:52:41;;;;;;;9.30;3.20;;;;;;;15.26;71.22;100809.33;108872;1270;22280;-78
2022/07/12 04:55:48;;;;;;;;;;;;;;;;;;;;;
2022/07/12 04:58:25;;;;;;;7.70;2.50;;;;;;;15.33;70.92;100802.89;109157;1266;22802;-79
2022/07/12 05:02:00;;;;;;;10.10;3.20;;;;;;;15.36;70.90;100797.07;108640;1273;21998;-78
2022/07/12 05:05:11;;;;;;;6.50;2.70;;;;;;;15.43;70.97;100793.41;108445;1275;22103;-78
2022/07/12 05:08:27;;;;;;;6.50;2.80;;;;;;;15.48;70.73;100795.31;108551;1273;21985;-78
2022/07/12 05:11:03;;;;;;;7.60;2.90;;;;;;;15.52;70.60;100795.48;108764;1267;22062;-78
2022/07/12 05:13:47;;;;;;;9.10;2.80;;;;;;;15.61;70.61;100792.83;108856;1267;23707;-78
2022/07/12 05:16:31;;;;;;;;;;;;;;;;;;;;;
2022/07/12 05:19:10;;;;;;;6.00;2.90;;;;;;;15.76;70.47;100800.83;108924;1265;23209;-78
2022/07/12 05:22:00;;;;;;;6.70;2.60;;;;;;;15.87;70.65;100799.16;109041;1266;22532;-78
2022/07/12 05:24:52;;;;;;;;;;;;;;;16.00;70.59;100797.92;110073;1258;23107;-78
2022/07/12 05:28:15;;;;;;;7.70;2.70;;;;;;;16.03;70.38;100796.54;109887;1261;23008;-78
2022/07/12 05:34:33;;;;;;;6.40;2.60;;;;;;;16.21;70.10;100801.99;110080;1260;21983;-79
2022/07/12 05:37:36;;;;;;;10.00;2.70;;;;;;;16.34;69.63;100806.27;110002;1256;21982;-78
2022/07/12 05:40:25;;;;;;;5.70;2.20;;;;;;;16.37;69.00;100801.12;110277;1257;21928;-79
2022/07/12 05:43:19;;;;;;;4.90;2.20;;;;;;;16.36;68.70;100796.91;110075;1256;22170;-79
2022/07/12 05:46:15;;;;;;;8.20;3.10;;;;;;;16.43;69.21;100798.24;110381;1256;22920;-79
2022/07/12 05:48:55;;;;;;;10.10;2.90;;;;;;;16.62;69.38;100800.16;110265;1255;22753;-79
2022/07/12 05:54:41;;;;;;;9.50;2.40;;;;;;;16.86;69.24;100797.81;110058;1258;21970;-79
2022/07/12 05:57:29;;;;;;;5.70;3.00;;;;;;;17.14;69.53;100802.00;109825;1258;22313;-79
2022/07/12 06:00:34;;;;;;;;;;;;;;;;;;;;;
2022/07/12 06:03:46;;;;;;;6.80;2.70;;;;;;;17.76;69.00;100793.03;110467;1257;22058;-78
2022/07/12 06:06:18;;;;;;;6.80;2.30;;;;;;;18.21;68.74;100789.80;110158;1258;21965;-77
2022/07/12 06:09:09;;;;;;;6.30;2.00;;;;;;;18.71;67.55;100787.01;109409;1264;23614;-78
2022/07/12 06:11:52;;;;;;;14.70;3.00;;;;;;;19.22;66.64;100774.91;109274;1259;23598;-78
2022/07/12 06:14:24;;;;;;;6.80;2.50;;;;;;;19.76;65.05;100780.77;109734;1259;22052;-78
2022/07/12 06:16:56;;;;;;;5.40;2.10;;;;;;;20.05;62.83;100781.95;110057;1259;22083;-79
2022/07/12 06:19:26;;;;;;;7.40;2.30;;;;;;;20.30;61.44;100778.88;110056;1259;21983;-78
2022/07/12 06:21:56;;;;;;;7.00;2.00;;;;;;;20.55;60.49;100775.14;109709;1262;21974;-79
2022/07/12 06:24:30;;;;;;;6.20;2.80;;;;;;;20.78;59.66;100771.89;109861;1261;23119;-78
2022/07/12 06:27:06;;;;;;;5.40;2.30;;;;;;;20.88;58.18;100770.50;109936;1259;21969;-79
2022/07/12 06:29:55;;;;;;;6.40;2.20;;;;;;;20.95;57.67;100771.56;110237;1259;21990;-78
2022/07/12 06:32:32;;;;;;;11.10;3.40;;;;;;;21.08;58.06;100775.95;109376;1262;23048;-78
2022/07/12 06:35:08;;;;;;;11.00;3.00;;;;;;;21.25;57.72;100778.28;108889;1267;21988;-79
2022/07/12 06:37:47;;;;;;;6.00;2.40;;;;;;;21.34;56.12;100778.77;109132;1268;22061;-78
2022/07/12 06:40:18;;;;;;;5.30;2.30;;;;;;;21.25;55.49;100777.20;109122;1264;23768;-78
2022/07/12 06:42:51;;;;;;;7.20;2.80;;;;;;;21.33;56.69;100778.94;109243;1264;21985;-78
2022/07/12 06:45:27;;;;;;;6.20;2.30;;;;;;;21.59;56.58;100783.33;108872;1270;21981;-78
2022/07/12 06:47:59;;;;;;;10.10;2.20;;;;;;;21.62;54.86;100783.33;108850;1270;23666;-78
2022/07/12 06:50:38;;;;;;;9.80;2.40;;;;;;;21.49;54.45;100783.85;108655;1270;21975;-77
2022/07/12 06:53:17;;;;;;;8.60;2.10;;;;;;;21.40;54.97;100779.95;108939;1267;22045;-78
2022/07/12 06:55:53;;;;;;;8.60;2.30;;;;;;;21.41;55.64;100780.37;108637;1267;23593;-78
2022/07/12 06:58:40;;;;;;;4.50;2.00;;;;;;;21.52;55.62;100784.25;108846;1270;24293;-78
2022/07/12 07:01:13;;;;;;;6.80;2.30;;;;;;;21.53;54.81;100781.52;108671;1274;24312;-78
2022/07/12 07:03:43;;;;;;;12.50;2.50;;;;;;;21.51;54.88;100784.80;108801;1270;23038;-78
2022/07/12 07:06:28;;;;;;;6.50;2.40;;;;;;;21.50;54.79;100788.59;109068;1268;22215;-78
2022/07/12 07:08:58;;;;;;;5.70;3.30;;;;;;;21.53;55.31;100786.67;109133;1265;23601;-80
2022/07/12 07:11:41;;;;;;;6.90;2.10;;;;;;;21.78;55.78;100783.65;109037;1264;23608;-81
2022/07/12 07:14:25;;;;;;;7.20;2.70;;;;;;;22.01;55.46;100781.96;109485;1264;22054;-80
2022/07/12 07:17:23;;;;;;;5.80;3.60;;;;;;;22.23;54.50;100777.98;109909;1264;22424;-87
2022/07/12 07:20:43;;;;;;;4.10;1.90;;;;;;;22.38;54.24;100775.41;110075;1263;23587;-87
2022/07/12 07:23:34;;;;;;;4.00;2.10;;;;;;;22.82;55.06;100775.65;110105;1265;22770;-88
2022/07/12 07:26:13;;;;;;;4.70;2.10;;;;;;;23.25;54.05;100775.03;110290;1261;22253;-88
2022/07/12 07:32:03;;;;;;;6.20;4.60;;;;;;;24.07;51.38;100773.73;111550;1253;21975;-83
2022/07/12 07:34:41;;;;;;;7.40;2.80;;;;;;;24.24;50.18;100772.12;111048;1253;23702;-84
2022/07/12 07:37:20;;;;;;;5.10;1.80;;;;;;;24.42;49.86;100773.03;110954;1253;21961;-81
2022/07/12 07:40:17;;;;;;;5.40;2.30;;;;;;;24.50;48.80;100770.17;111904;1253;21982;-91
2022/07/12 07:43:09;;;;;;;6.90;1.80;;;;;;;24.36;48.13;100773.91;111055;1253;23007;-82
2022/07/12 07:45:46;;;;;;;5.70;1.50;;;;;;;24.37;48.64;100771.86;110671;1254;22086;-83
2022/07/12 07:48:18;;;;;;;6.60;2.20;;;;;;;24.64;49.06;100767.59;110607;1254;23698;-81
2022/07/12 07:50:58;;;;;;;5.40;2.40;;;;;;;24.89;48.09;100769.37;110645;1254;21960;-83
2022/07/12 07:53:37;;;;;;;7.10;3.30;;;;;;;25.00;46.64;100774.35;110687;1254;23073;-84
2022/07/12 07:56:10;;;;;;;5.20;2.00;;;;;;;24.97;46.19;100776.20;110494;1254;21971;-83
2022/07/12 07:58:43;;;;;;;4.90;1.50;;;;;;;25.07;45.65;100772.75;110711;1254;22005;-82
2022/07/12 08:01:17;;;;;;;6.30;1.10;;;;;;;25.29;45.12;100771.77;110604;1254;21957;-82
2022/07/12 08:03:50;;;;;;;11.30;3.10;;;;;;;25.16;43.23;100774.42;110582;1254;21970;-80
2022/07/12 08:06:28;;;;;;;5.90;1.50;;;;;;;24.82;43.67;100773.05;110373;1254;22461;-79
2022/07/12 08:09:07;;;;;;;2.40;1.10;;;;;;;24.55;45.05;100774.35;110698;1254;23668;-79
2022/07/12 08:11:53;;;;;;;5.30;1.40;;;;;;;24.41;45.98;100772.65;110773;1254;21969;-80
2022/07/12 08:14:29;;;;;;;5.70;1.80;;;;;;;24.44;46.34;100777.65;110693;1254;22026;-79
2022/07/12 08:17:22;;;;;;;3.40;1.60;;;;;;;24.53;45.73;100777.56;110386;1254;21993;-79
2022/07/12 08:20:24;;;;;;;10.10;1.40;;;;;;;24.72;45.30;100776.13;110699;1254;23701;-80
2022/07/12 08:23:24;;;;;;;5.40;0.70;;;;;;;24.91;44.46;100779.98;110478;1254;23069;-80
2022/07/12 08:26:18;;;;;;;2.50;1.30;;;;;;;24.99;44.11;100776.83;110216;1258;21987;-78
2022/07/12 08:28:54;;;;;;;2.50;0.70;;;;;;;25.07;43.71;100781.99;110215;1260;23726;-80
2022/07/12 08:31:46;;;;;;;3.80;0.90;;;;;;;25.11;43.78;100785.73;110256;1259;22027;-80
2022/07/12 08:34:51;;;;;;;;;;;;;;;;;;;;;
2022/07/12 08:38:30;;;;;;;4.80;1.00;;;;;;;25.58;42.69;100790.38;110269;1260;23000;-80
2022/07/12 08:42:23;;;;;;;;;;;;;;;;;;;;;
2022/07/12 08:45:37;;;;;;;6.70;2.40;;;;;;;24.49;41.67;100791.41;109299;1267;21979;-79
2022/07/12 08:48:25;;;;;;;2.40;0.90;;;;;;;24.44;44.01;100787.80;109195;1267;23789;-79
2022/07/12 08:55:25;;;;;;;4.30;1.50;;;;;;;25.13;43.09;100793.66;109623;1265;22003;-81
2022/07/12 08:58:15;;;;;;;2.80;1.50;;;;;;;25.26;41.97;100797.86;109526;1263;21971;-80
2022/07/12 09:00:58;;;;;;;4.10;1.10;;;;;;;25.21;41.36;100793.27;109652;1263;23052;-80
2022/07/12 09:04:22;;;;;;;5.80;1.30;;;;;;;25.29;41.45;100789.19;109752;1260;21948;-80
2022/07/12 09:07:35;;;;;;;2.40;1.80;;;;;;;25.27;41.01;100789.92;110238;1260;22029;-81
2022/07/12 09:11:19;;;;;;;2.60;1.40;;;;;;;25.33;40.29;100782.95;109659;1263;22295;-80
2022/07/12 09:14:31;;;;;;;6.40;0.90;;;;;;;25.47;40.07;100785.52;109512;1264;22439;-80
2022/07/12 09:18:28;;;;;;;2.50;0.60;;;;;;;25.67;39.80;100789.50;109623;1263;22001;-80
2022/07/12 09:21:49;;;;;;;;;;;;;;;;;;;;;
2022/07/12 09:24:43;;;;;;;6.20;1.60;;;;;;;26.12;39.38;100787.15;109545;1264;23587;-81
2022/07/12 09:27:15;;;;;;;6.00;4.50;;;;;;;26.33;38.20;100786.38;109441;1264;21977;-80
2022/07/12 09:30:13;;;;;;;3.90;1.40;;;;;;;26.40;37.70;100786.24;109652;1260;22989;-81
2022/07/12 09:37:05;;;;;;;4.50;0.80;;;;;;;26.22;36.33;100793.00;109446;1265;22050;-79
2022/07/12 09:39:44;;;;;;;;;;;;;;;25.75;37.03;100790.85;109664;1261;21993;-79
2022/07/12 09:42:22;;;;;;;6.20;1.70;;;;;;;25.54;38.74;100788.02;109955;1260;21987;-80
2022/07/12 09:45:14;;;;;;;3.40;1.10;;;;;;;25.65;39.56;100788.71;110165;1259;21972;-82
2022/07/12 09:48:05;;;;;;;5.90;1.00;;;;;;;25.80;39.13;100790.44;109338;1265;21999;-80
2022/07/12 09:51:15;;;;;;;4.90;0.60;;;;;;;26.06;39.10;100784.67;109423;1265;23053;-82
2022/07/12 09:53:59;;;;;;;3.40;0.80;;;;;;;26.24;38.03;100786.10;109236;1267;22016;-81
2022/07/12 09:56:45;;;;;;;1.80;0.70;;;;;;;26.27;37.59;100781.89;109197;1267;21978;-83
2022/07/12 09:59:49;;;;;;;2.50;0.80;;;;;;;26.36;37.20;100775.72;109281;1267;21992;-81
2022/07/12 10:02:27;;;;;;;4.90;0.70;;;;;;;26.39;37.02;100768.48;109275;1267;22134;-81
2022/07/12 10:05:04;;;;;;;8.30;2.40;;;;;;;26.44;37.05;100768.72;109491;1260;21999;-82
2022/07/12 10:08:31;;;;;;;11.70;0.90;;;;;;;26.27;35.96;100768.57;110591;1257;22028;-80
2022/07/12 10:11:02;;;;;;;3.00;0.70;;;;;;;25.83;36.09;100768.35;110546;1253;23078;-83
2022/07/12 10:13:54;;;;;;;1.70;0.70;;;;;;;25.58;37.31;100764.30;110885;1254;21968;-80
2022/07/12 10:20:34;;;;;;;0.90;0.50;;;;;;;25.79;37.31;100764.31;110312;1260;22999;-85
2022/07/12 10:24:18;;;;;;;2.70;0.90;;;;;;;26.01;37.26;100764.87;110280;1260;22004;-84
2022/07/12 10:27:34;;;;;;;1.70;0.80;;;;;;;26.16;36.99;100766.33;110191;1260;21999;-81
2022/07/12 10:30:31;;;;;;;;;;;;;;;;;;;;;
2022/07/12 10:33:31;;;;;;;5.10;0.90;;;;;;;25.62;37.04;100767.04;110222;1260;22021;-84
2022/07/12 10:36:21;;;;;;;4.00;1.10;;;;;;;25.24;37.64;100766.36;110143;1260;22056;-83
2022/07/12 10:39:33;;;;;;;2.20;0.90;;;;;;;24.96;38.07;100766.73;110107;1260;21980;-81
2022/07/12 10:43:11;;;;;;;;;;;;;;;;;;;;;
2022/07/12 10:46:35;;;;;;;1.60;1.30;;;;;;;24.56;39.42;100760.59;110274;1259;21990;-81
2022/07/12 10:49:54;;;;;;;1.50;0.50;;;;;;;24.67;39.31;100752.07;109461;1261;21981;-79
2022/07/12 10:52:49;;;;;;;2.70;0.50;;;;;;;24.63;38.62;100749.16;110862;1254;22833;-83
2022/07/12 10:55:43;;;;;;;3.70;0.60;;;;;;;24.41;38.44;100749.51;110791;1253;21981;-84
2022/07/12 10:58:57;;;;;;;3.70;0.90;;;;;;;24.15;38.45;100754.44;110346;1260;23712;-83
2022/07/12 11:02:25;;;;;;;;;;;;;;;23.93;38.73;100753.20;109836;1263;21971;-82
2022/07/12 11:05:40;;;;;;;;;;;;;;;;;;;;;
2022/07/12 11:09:16;;;;;;;;;;;;;;;;;;;;;
2022/07/12 11:12:40;;;;;;;1.30;0.50;;;;;;;23.53;39.64;100738.92;109651;1263;22014;-81
2022/07/12 11:15:36;;;;;;;5.90;0.70;;;;;;;23.57;39.19;100742.06;109806;1262;23096;-82
2022/07/12 11:18:44;;;;;;;;;;;;;;;;;;;;;
2022/07/12 11:21:39;;;;;;;4.40;0.60;;;;;;;23.49;39.50;100730.82;110331;1260;23090;-84
2022/07/12 11:24:58;;;;;;;;;;;;;;;23.50;39.08;100733.64;110589;1257;21966;-85
2022/07/12 11:27:56;;;;;;;5.00;0.70;;;;;;;23.41;38.81;100732.95;110267;1262;23743;-82
2022/07/12 11:31:28;;;;;;;5.40;0.60;;;;;;;23.36;38.83;100723.98;109988;1263;21987;-85
2022/07/12 11:35:29;;;;;;;2.40;0.40;;;;;;;23.45;39.32;100716.84;110056;1263;22378;-87
2022/07/12 11:42:20;;;;;;;4.00;0.90;;;;;;;23.66;39.23;100718.23;109398;1268;24441;-81
2022/07/12 11:45:03;;;;;;;;;;;;;;;23.75;38.59;100718.81;109177;1270;21964;-82
2022/07/12 11:48:13;;;;;;;;;;;;;;;;;;;;;
2022/07/12 11:51:38;;;;;;;3.60;0.80;;;;;;;23.58;38.36;100717.11;109011;1268;21993;-85
2022/07/12 11:54:36;;;;;;;2.10;0.70;;;;;;;23.49;38.87;100720.73;105111;1270;5354303;-85
2022/07/12 11:58:14;;;;;;;1.50;0.50;;;;;;;23.38;39.43;100717.17;109428;1267;21983;-83
2022/07/12 12:01:14;;;;;;;6.50;2.50;;;;;;;23.47;40.17;100705.06;109784;1263;21979;-83
2022/07/12 12:04:54;;;;;;;4.20;3.20;;;;;;;23.59;40.13;100702.40;109291;1267;22008;-83
2022/07/12 12:08:01;;;;;;;;;;;;;;;;;;;;;
2022/07/12 12:11:56;;;;;;;;;;;;;;;;;;;;;
2022/07/12 12:15:11;;;;;;;2.10;0.80;;;;;;;24.00;39.43;100694.36;109400;1267;23626;-82
2022/07/12 12:18:12;;;;;;;2.70;0.70;;;;;;;24.17;39.67;100688.02;109356;1270;22008;-84
2022/07/12 12:21:05;;;;;;;4.30;0.90;;;;;;;24.29;38.61;100701.35;109302;1270;22051;-86
2022/07/12 12:24:33;;;;;;;79.30;7.30;;;;;;;24.18;38.22;100698.29;109626;1267;21996;-85
2022/07/12 12:27:31;;;;;;;4.60;1.00;;;;;;;24.05;38.61;100695.73;109627;1267;21959;-85
2022/07/12 12:30:57;;;;;;;4.50;0.80;;;;;;;23.99;39.05;100696.82;109537;1267;22005;-86
2022/07/12 12:34:09;;;;;;;3.80;0.70;;;;;;;24.00;39.15;100687.52;109483;1267;21993;-85
2022/07/12 12:36:55;;;;;;;2.00;0.60;;;;;;;24.03;38.83;100681.02;110110;1258;21943;-86
2022/07/12 12:40:02;;;;;;;2.80;1.10;;;;;;;24.07;38.79;100680.85;109788;1263;22083;-85
2022/07/12 12:42:47;;;;;;;1.30;0.70;;;;;;;24.11;38.52;100682.20;109711;1267;21995;-85
2022/07/12 12:45:24;;;;;;;1.60;0.60;;;;;;;24.16;38.42;100682.76;109483;1267;21997;-84
2022/07/12 12:48:10;;;;;;;4.30;1.20;;;;;;;24.17;38.54;100676.77;109217;1273;21992;-87
2022/07/12 12:50:50;;;;;;;4.40;0.50;;;;;;;24.21;38.20;100676.40;108939;1276;22042;-84
2022/07/12 12:53:55;;;;;;;2.70;0.90;;;;;;;24.12;37.56;100670.94;109220;1276;23656;-83
2022/07/12 12:56:28;;;;;;;3.40;0.60;;;;;;;24.10;37.30;100673.67;108924;1276;23065;-86
2022/07/12 12:59:06;;;;;;;1.30;0.40;;;;;;;24.05;37.11;100667.18;108966;1270;23705;-82
2022/07/12 13:01:40;;;;;;;1.50;0.50;;;;;;;23.97;37.17;100667.77;109045;1273;21988;-85
2022/07/12 13:04:13;;;;;;;1.40;0.40;;;;;;;23.92;37.33;100666.17;109076;1273;22004;-87
2022/07/12 13:07:01;;;;;;;2.60;0.40;;;;;;;23.86;37.21;100665.30;108648;1280;23596;-86
2022/07/12 13:09:43;;;;;;;4.00;0.70;;;;;;;23.88;37.36;100666.50;108754;1276;22535;-85
2022/07/12 13:12:18;;;;;;;6.60;0.60;;;;;;;23.86;36.94;100663.31;109186;1270;23507;-87
2022/07/12 13:15:00;;;;;;;4.50;0.80;;;;;;;23.78;36.99;100671.45;109454;1270;22307;-87
2022/07/12 13:17:34;;;;;;;2.70;0.50;;;;;;;23.74;37.23;100668.67;109542;1270;21999;-86
2022/07/12 13:20:21;;;;;;;5.00;0.60;;;;;;;23.76;37.54;100665.41;109559;1270;24440;-87
2022/07/12 13:22:55;;;;;;;2.80;1.00;;;;;;;23.82;37.37;100659.99;110186;1261;22917;-87
2022/07/12 13:25:31;;;;;;;0.90;0.30;;;;;;;23.86;37.07;100660.55;110753;1254;22327;-87
2022/07/12 13:28:01;;;;;;;4.20;0.90;;;;;;;23.94;36.95;100661.52;110959;1254;21982;-87
2022/07/12 13:30:38;;;;;;;3.00;0.50;;;;;;;24.07;36.75;100665.86;111087;1254;22430;-87
2022/07/12 13:33:10;;;;;;;0.60;0.30;;;;;;;24.16;36.37;100665.76;111004;1254;22000;-85
2022/07/12 13:35:45;;;;;;;3.40;0.40;;;;;;;24.17;36.03;100666.74;111424;1253;23027;-86
2022/07/12 13:38:22;;;;;;;2.00;0.40;;;;;;;24.18;35.93;100661.80;110638;1254;21968;-87
2022/07/12 13:40:55;;;;;;;2.00;0.40;;;;;;;24.19;36.13;100668.17;110662;1253;21972;-85
2022/07/12 13:43:25;;;;;;;2.30;0.70;;;;;;;24.19;36.24;100670.21;110679;1253;21960;-84
2022/07/12 13:46:04;;;;;;;1.50;0.70;;;;;;;24.23;36.42;100673.40;110442;1257;21991;-85
2022/07/12 13:48:36;;;;;;;4.80;0.60;;;;;;;24.28;36.77;100674.27;110161;1257;22391;-84
2022/07/12 13:51:09;;;;;;;1.00;0.30;;;;;;;24.30;36.71;100669.34;110594;1257;23576;-87